Terminal Aerodrome Forecast
Issued by NWS Wilmington, OH

Current Version | Previous Version | Graphics & Text | Print | Product List | Glossary On
Versions: 1 2 3 4 5 6 7 8 9 10 11 12 13 14 15 16 17 18 19 20 21 22 23
821
FTUS41 KILN 212108 AAA
TAFCVG
TAF AMD
KCVG 212108Z 2121/2224 VRB04KT P6SM VCSH SCT040 OVC090
      TEMPO 2121/2124 5SM -SHRA OVC030
     FM220000 19004KT P6SM VCSH OVC030
     FM220600 19004KT 5SM BR OVC015
     FM220800 00000KT 3SM BR OVC010
     FM221200 VRB03KT 2SM BR OVC007
     FM221500 19004KT P6SM OVC007
     FM221800 19004KT P6SM BKN020
     FM222100 19004KT P6SM BKN035=

USA.gov is the U.S. government's official web portal to all federal, state and local government web resources and services.